Time;durP1;ratioP1;P1;durP2;ratioP2;P2;SDS_P1;SDS_P2;PMS_P1;PMS_P2;Temp;Humidity;BMP_temperature;BMP_pressure;BME280_temperature;BME280_humidity;BME280_pressure;Samples;Min_cycle;Max_cycle;Signal;HPM_P1;HPM_P2
2021/06/21 00:00:01;;;;;;;9.30;6.32;;;;;;;23.57;59.13;99883.22;4839321;29;20084;-61
2021/06/21 00:02:27;;;;;;;10.15;6.75;;;;;;;23.57;59.11;99891.19;4839924;29;20505;-62
2021/06/21 00:04:53;;;;;;;9.90;6.68;;;;;;;23.52;59.24;99885.41;4848273;29;20101;-64
2021/06/21 00:07:20;;;;;;;9.77;6.53;;;;;;;23.51;59.98;99891.69;4846853;29;20064;-63
2021/06/21 00:09:46;;;;;;;8.38;6.15;;;;;;;23.46;59.84;99886.78;4847778;29;20132;-64
2021/06/21 00:12:14;;;;;;;9.75;6.13;;;;;;;23.43;59.82;99889.66;4840218;29;20533;-64
2021/06/21 00:14:44;;;;;;;10.00;6.60;;;;;;;23.41;59.95;99896.06;4852561;29;20095;-63
2021/06/21 00:17:10;;;;;;;10.50;7.03;;;;;;;23.38;60.50;99899.84;4837892;29;20148;-63
2021/06/21 00:19:36;;;;;;;8.82;6.40;;;;;;;23.33;61.17;99898.53;4837956;29;20063;-64
2021/06/21 00:22:04;;;;;;;9.77;6.90;;;;;;;23.30;61.44;99896.13;4833920;29;20106;-63
2021/06/21 00:24:31;;;;;;;10.50;6.50;;;;;;;23.27;60.91;99899.88;4834745;29;20084;-66
2021/06/21 00:27:08;;;;;;;12.77;6.70;;;;;;;23.22;60.80;99902.09;4834707;29;20076;-62
2021/06/21 00:29:34;;;;;;;12.77;6.38;;;;;;;23.22;60.63;99900.28;4838564;29;20053;-64
2021/06/21 00:32:00;;;;;;;12.80;6.88;;;;;;;23.20;61.06;99902.19;4836486;29;20054;-63
2021/06/21 00:34:25;;;;;;;13.63;7.88;;;;;;;23.17;60.99;99897.16;4858132;29;20053;-64
2021/06/21 00:36:51;;;;;;;11.93;6.82;;;;;;;23.15;61.17;99887.63;4839136;29;20077;-64
2021/06/21 00:39:17;;;;;;;8.88;7.07;;;;;;;23.15;61.21;99895.59;4838345;29;20045;-64
2021/06/21 00:41:43;;;;;;;12.93;7.53;;;;;;;23.12;61.52;99894.06;4834440;29;20546;-64
2021/06/21 00:44:09;;;;;;;10.13;6.65;;;;;;;23.11;61.97;99888.88;4838623;29;20042;-64
2021/06/21 00:46:36;;;;;;;8.00;6.65;;;;;;;23.08;62.34;99889.13;4838507;29;20136;-64
2021/06/21 00:49:03;;;;;;;11.25;6.78;;;;;;;23.06;62.04;99886.59;4838312;29;20045;-64
2021/06/21 00:51:30;;;;;;;8.27;7.05;;;;;;;23.05;61.81;99886.72;4834964;29;20102;-64
2021/06/21 00:53:55;;;;;;;10.73;7.15;;;;;;;23.04;62.15;99892.97;4834114;29;20425;-64
2021/06/21 00:56:23;;;;;;;11.82;7.28;;;;;;;23.01;62.41;99891.44;4833813;29;20054;-64
2021/06/21 00:58:50;;;;;;;15.27;7.25;;;;;;;22.99;62.65;99888.06;4838935;29;20056;-65
2021/06/21 01:01:16;;;;;;;13.20;8.50;;;;;;;22.96;62.35;99890.97;4849861;29;20704;-64
2021/06/21 01:03:41;;;;;;;14.10;8.05;;;;;;;22.95;62.61;99888.44;4838029;29;20160;-64
2021/06/21 01:06:07;;;;;;;11.07;8.43;;;;;;;22.93;62.80;99896.50;4838587;29;20038;-65
2021/06/21 01:08:33;;;;;;;15.25;8.23;;;;;;;22.91;62.54;99894.97;4837665;29;20038;-64
2021/06/21 01:10:59;;;;;;;14.95;8.07;;;;;;;22.90;62.84;99898.59;4837565;29;20077;-63
2021/06/21 01:13:27;;;;;;;12.65;7.97;;;;;;;22.87;63.24;99902.34;4839044;29;20042;-63
2021/06/21 01:16:14;;;;;;;14.07;8.30;;;;;;;22.85;63.17;99898.13;4836908;29;20049;-64
2021/06/21 01:18:44;;;;;;;12.73;7.68;;;;;;;22.84;63.52;99909.69;4838289;29;20114;-63
2021/06/21 01:21:40;;;;;;;11.80;8.13;;;;;;;22.82;63.93;99903.69;5310092;24;20152;-64
2021/06/21 01:24:34;;;;;;;12.10;8.05;;;;;;;22.78;64.30;99908.38;4874068;29;20053;-64
2021/06/21 01:27:32;;;;;;;12.30;8.00;;;;;;;22.75;64.98;99901.53;4861523;29;20057;-62
2021/06/21 01:30:18;;;;;;;14.73;8.45;;;;;;;22.71;64.85;99907.22;4860093;29;20061;-63
2021/06/21 01:33:04;;;;;;;12.68;8.50;;;;;;;22.68;65.29;99904.75;4883363;29;20190;-64
2021/06/21 01:35:29;;;;;;;9.48;7.85;;;;;;;22.64;65.41;99901.50;4886994;29;20041;-64
2021/06/21 01:37:58;;;;;;;15.43;8.75;;;;;;;22.59;65.87;99898.41;4875699;29;20059;-64
2021/06/21 01:40:25;;;;;;;16.38;8.50;;;;;;;22.58;66.10;99901.16;4889931;29;20052;-64
2021/06/21 01:42:55;;;;;;;13.73;8.10;;;;;;;22.57;65.69;99899.47;4875406;29;20477;-65
2021/06/21 01:45:25;;;;;;;11.23;7.75;;;;;;;22.57;65.92;99910.06;4873875;29;20048;-65
2021/06/21 01:47:53;;;;;;;14.52;8.65;;;;;;;22.58;65.96;99903.81;4873873;29;20049;-64
2021/06/21 01:50:24;;;;;;;13.43;8.68;;;;;;;22.57;66.84;99912.72;4875262;29;20096;-64
2021/06/21 01:52:58;;;;;;;12.88;8.10;;;;;;;22.55;65.85;99909.38;4904172;29;20074;-63
2021/06/21 01:55:25;;;;;;;19.15;8.85;;;;;;;22.54;66.79;99908.53;4857792;29;20125;-64
2021/06/21 01:57:52;;;;;;;13.73;8.80;;;;;;;22.53;67.17;99914.78;4873594;29;20045;-64
2021/06/21 02:00:18;;;;;;;16.40;8.90;;;;;;;22.50;67.46;99912.41;4873884;29;20091;-64
2021/06/21 02:02:44;;;;;;;15.30;9.10;;;;;;;22.48;67.92;99911.66;4875604;29;20051;-64
2021/06/21 02:05:13;;;;;;;14.13;8.05;;;;;;;22.47;67.83;99906.47;4882186;29;20053;-64
2021/06/21 02:07:38;;;;;;;;;;;;;;;22.47;67.30;99912.63;4877965;29;20517;-64
2021/06/21 02:10:05;;;;;;;12.40;7.65;;;;;;;22.49;66.24;99904.56;4892060;29;19931;-63
2021/06/21 02:12:31;;;;;;;12.82;7.22;;;;;;;22.52;65.89;99901.66;4875741;29;20056;-63
2021/06/21 02:14:57;;;;;;;12.75;8.05;;;;;;;22.53;66.27;99909.47;4878310;29;20139;-62
2021/06/21 02:17:25;;;;;;;13.77;8.32;;;;;;;22.56;66.50;99911.06;4860985;29;20041;-63
2021/06/21 02:22:46;;;;;;;12.70;7.70;;;;;;;22.57;67.10;99904.78;4860864;23;20065;-64
2021/06/21 02:25:13;;;;;;;12.95;7.65;;;;;;;22.59;67.11;99895.75;4860951;29;20053;-62
2021/06/21 02:27:39;;;;;;;13.73;7.60;;;;;;;22.61;67.10;99906.22;4859922;29;20129;-62
2021/06/21 02:30:08;;;;;;;11.10;7.35;;;;;;;22.64;66.94;99908.63;4857723;29;20491;-63
2021/06/21 02:32:33;;;;;;;;;;;;;;;22.65;66.66;99908.50;4855409;29;20049;-61
2021/06/21 02:34:59;;;;;;;12.63;7.10;;;;;;;22.67;66.38;99913.66;4855670;29;19930;-62
2021/06/21 02:37:25;;;;;;;14.05;7.40;;;;;;;22.70;66.36;99905.47;4855333;29;20041;-62
2021/06/21 02:39:51;;;;;;;12.80;7.25;;;;;;;22.76;65.86;99903.22;4854788;29;20052;-63
2021/06/21 02:42:17;;;;;;;10.27;7.00;;;;;;;22.82;65.55;99906.34;4856242;29;20083;-63
2021/06/21 02:44:43;;;;;;;8.57;6.45;;;;;;;22.88;65.09;99908.47;4860391;29;20374;-65
2021/06/21 02:47:08;;;;;;;10.75;6.97;;;;;;;22.93;64.55;99906.28;4860920;29;20056;-63
2021/06/21 02:49:35;;;;;;;8.80;7.82;;;;;;;22.98;64.63;99904.94;4858092;29;20055;-65
2021/06/21 02:52:24;;;;;;;12.27;6.63;;;;;;;23.04;64.12;99896.47;4861373;29;20052;-64
2021/06/21 02:55:06;;;;;;;12.65;6.88;;;;;;;23.10;63.94;99906.59;4867871;29;20397;-64
2021/06/21 02:57:59;;;;;;;12.00;7.22;;;;;;;23.15;63.98;99903.56;4873261;29;20049;-66
2021/06/21 03:00:26;;;;;;;13.73;6.55;;;;;;;23.20;63.98;99912.81;4860799;29;20401;-63
2021/06/21 03:02:57;;;;;;;11.35;8.20;;;;;;;23.23;63.82;99911.72;4861748;29;20112;-63
2021/06/21 03:05:23;;;;;;;13.80;7.20;;;;;;;23.28;63.99;99925.47;4846140;29;20048;-64
2021/06/21 03:07:51;;;;;;;10.27;6.53;;;;;;;23.30;63.00;99918.19;4859226;29;20138;-64
2021/06/21 03:10:17;;;;;;;11.20;7.43;;;;;;;23.34;63.69;99924.09;4859654;29;20073;-65
2021/06/21 03:12:45;;;;;;;12.23;6.97;;;;;;;23.36;63.03;99925.66;4853651;29;20591;-64
2021/06/21 03:15:13;;;;;;;14.27;7.60;;;;;;;23.38;62.11;99930.84;4858942;29;20037;-62
2021/06/21 03:17:39;;;;;;;9.60;6.28;;;;;;;23.40;61.45;99927.06;4872188;29;20048;-65
2021/06/21 03:20:05;;;;;;;13.10;6.53;;;;;;;23.43;61.60;99933.94;4867229;29;20053;-66
2021/06/21 03:22:32;;;;;;;11.43;7.10;;;;;;;23.43;62.06;99928.63;4857494;29;20148;-65
2021/06/21 03:24:57;;;;;;;8.32;5.40;;;;;;;23.43;61.06;99928.63;4854407;29;20645;-64
2021/06/21 03:27:30;;;;;;;9.88;6.07;;;;;;;23.45;61.07;99931.97;4855811;29;20053;-64
2021/06/21 03:29:57;;;;;;;12.02;7.25;;;;;;;23.46;61.55;99931.06;4864591;29;20058;-64
2021/06/21 03:32:29;;;;;;;9.27;5.43;;;;;;;23.46;60.97;99926.59;4857749;29;20050;-64
2021/06/21 03:35:00;;;;;;;10.35;5.72;;;;;;;23.51;60.67;99929.69;4854022;29;20777;-66
2021/06/21 03:37:30;;;;;;;8.80;5.63;;;;;;;23.56;61.06;99929.31;4858435;29;20051;-65
2021/06/21 03:39:56;;;;;;;7.22;5.40;;;;;;;23.62;60.36;99934.09;4858821;29;20041;-64
2021/06/21 03:42:22;;;;;;;9.32;4.82;;;;;;;23.68;59.86;99924.78;4856692;29;20041;-64
2021/06/21 03:44:49;;;;;;;8.68;5.03;;;;;;;23.72;59.20;99937.66;4854361;29;20048;-64
2021/06/21 03:47:15;;;;;;;9.70;5.05;;;;;;;23.77;58.36;99935.47;4853444;29;20049;-64
2021/06/21 03:49:44;;;;;;;8.68;4.68;;;;;;;23.83;58.36;99945.56;4853092;29;20056;-65
2021/06/21 03:52:09;;;;;;;11.00;5.00;;;;;;;23.90;57.90;99935.28;5320367;23;20072;-62
2021/06/21 03:54:35;;;;;;;9.75;4.93;;;;;;;23.97;57.70;99941.75;4853936;29;20552;-65
2021/06/21 03:57:01;;;;;;;7.63;5.47;;;;;;;24.03;57.25;99942.03;4855124;29;20052;-64
2021/06/21 03:59:27;;;;;;;6.93;5.10;;;;;;;24.11;57.17;99943.22;4853657;29;20462;-65
2021/06/21 04:04:48;;;;;;;13.57;5.18;;;;;;;24.19;56.70;99941.59;4914881;24;20065;-64
2021/06/21 04:07:14;;;;;;;7.45;4.10;;;;;;;24.23;55.12;99943.03;4858741;29;20045;-65
2021/06/21 04:09:41;;;;;;;6.85;3.85;;;;;;;24.27;55.17;99947.09;4858161;29;20117;-67
2021/06/21 04:12:07;;;;;;;9.48;4.75;;;;;;;24.30;55.39;99946.81;4857963;29;20524;-66
2021/06/21 04:14:32;;;;;;;6.03;3.72;;;;;;;24.31;54.30;99948.50;4869142;29;20505;-65
2021/06/21 04:16:58;;;;;;;5.60;3.78;;;;;;;24.31;53.61;99943.19;4874240;29;20056;-65
2021/06/21 04:19:24;;;;;;;5.80;3.90;;;;;;;24.35;53.94;99955.25;4875519;29;20428;-66
2021/06/21 04:21:49;;;;;;;11.32;6.47;;;;;;;24.36;54.20;99953.41;4863962;29;20105;-66
2021/06/21 04:24:15;;;;;;;14.23;4.72;;;;;;;24.39;54.56;99951.31;4875332;29;20041;-65
2021/06/21 04:26:41;;;;;;;7.80;4.15;;;;;;;24.42;54.85;99945.75;4871374;29;20045;-65
2021/06/21 04:29:07;;;;;;;11.82;4.82;;;;;;;24.47;54.54;99948.84;4856732;29;20140;-66
2021/06/21 04:31:32;;;;;;;5.35;4.55;;;;;;;24.49;54.85;99951.41;4862065;29;20424;-62
2021/06/21 04:33:58;;;;;;;8.65;4.50;;;;;;;24.53;55.17;99952.78;4865936;29;20041;-61
2021/06/21 04:36:24;;;;;;;6.97;4.30;;;;;;;24.58;54.66;99955.03;4853389;29;20094;-64
2021/06/21 04:38:49;;;;;;;10.05;4.93;;;;;;;24.62;54.41;99954.63;4856339;29;20080;-65
2021/06/21 04:41:15;;;;;;;10.00;3.92;;;;;;;24.66;54.01;99955.19;4853323;29;20045;-63
2021/06/21 04:43:41;;;;;;;11.60;4.18;;;;;;;24.70;53.59;99961.94;4853209;29;20045;-66
2021/06/21 04:46:07;;;;;;;7.78;3.85;;;;;;;24.75;52.42;99951.75;4855644;29;20053;-63
2021/06/21 04:48:32;;;;;;;10.95;4.72;;;;;;;24.82;52.52;99960.84;4857418;29;20124;-65
2021/06/21 04:50:58;;;;;;;12.95;4.40;;;;;;;24.85;52.86;99955.28;4878923;29;20090;-65
2021/06/21 04:53:23;;;;;;;6.30;3.88;;;;;;;24.96;52.09;99967.66;4864606;29;20120;-64
2021/06/21 04:55:49;;;;;;;5.53;3.30;;;;;;;25.02;51.57;99964.44;4856544;29;20069;-65
2021/06/21 04:58:15;;;;;;;14.23;3.83;;;;;;;25.07;52.47;99971.00;4857756;29;20083;-65
2021/06/21 05:00:40;;;;;;;9.82;3.67;;;;;;;25.11;51.94;99964.44;4859745;29;20608;-66
2021/06/21 05:06:08;;;;;;;11.27;3.63;;;;;;;25.26;52.14;99970.19;4779005;29;20098;-64
2021/06/21 05:08:34;;;;;;;8.85;4.38;;;;;;;25.32;52.35;99974.97;4781706;29;20536;-65
2021/06/21 05:11:00;;;;;;;9.48;4.10;;;;;;;25.38;51.62;99960.25;4784547;29;20611;-67
2021/06/21 05:13:25;;;;;;;6.65;3.10;;;;;;;25.46;51.17;99971.88;4783511;29;20456;-64
2021/06/21 05:15:51;;;;;;;8.93;3.25;;;;;;;25.54;50.84;99968.53;4783789;29;20086;-65
2021/06/21 05:18:17;;;;;;;8.10;3.72;;;;;;;25.60;51.09;99960.81;4783374;29;20049;-67
2021/06/21 05:20:43;;;;;;;9.80;4.18;;;;;;;25.70;50.53;99966.13;4784662;29;20138;-66
2021/06/21 05:23:08;;;;;;;5.53;2.72;;;;;;;25.77;49.17;99961.94;4783927;29;20049;-66
2021/06/21 05:25:34;;;;;;;5.68;3.35;;;;;;;25.92;49.27;99970.31;5255395;24;20146;-64
2021/06/21 05:28:01;;;;;;;5.35;2.92;;;;;;;26.03;48.20;99960.34;4781358;30;20078;-64
2021/06/21 05:30:27;;;;;;;6.28;2.58;;;;;;;26.17;46.72;99961.69;4783152;30;20109;-64
2021/06/21 05:32:53;;;;;;;6.22;2.40;;;;;;;26.30;46.93;99966.75;4780409;30;20457;-63
2021/06/21 05:35:20;;;;;;;7.32;3.10;;;;;;;26.41;46.85;99955.91;4778027;29;20048;-65
2021/06/21 05:37:47;;;;;;;6.80;2.40;;;;;;;26.52;46.79;99964.56;4779631;29;20070;-64
2021/06/21 05:40:14;;;;;;;7.65;2.90;;;;;;;26.61;45.88;99959.31;4778544;29;20052;-63
2021/06/21 05:42:39;;;;;;;9.82;3.00;;;;;;;26.65;45.73;99963.34;4783643;29;20074;-66
2021/06/21 05:45:06;;;;;;;3.60;2.10;;;;;;;26.71;45.45;99955.59;4771711;30;20083;-63
2021/06/21 05:47:32;;;;;;;6.63;2.47;;;;;;;26.79;45.21;99960.19;4786502;30;20465;-67
2021/06/21 05:49:57;;;;;;;3.45;2.03;;;;;;;26.89;44.56;99966.34;4780130;30;20080;-64
2021/06/21 05:52:23;;;;;;;5.85;2.28;;;;;;;26.95;43.76;99961.22;4769046;30;20043;-67
2021/06/21 05:54:49;;;;;;;5.07;1.88;;;;;;;27.01;43.97;99966.97;4769276;30;20101;-70
2021/06/21 05:57:14;;;;;;;7.28;2.97;;;;;;;27.10;44.02;99956.22;4786227;30;20043;-67
2021/06/21 05:59:40;;;;;;;9.90;2.22;;;;;;;27.20;44.48;99962.34;4782902;30;20172;-66
2021/06/21 06:02:06;;;;;;;5.43;2.20;;;;;;;27.37;45.05;99966.81;4787273;30;20427;-61
2021/06/21 06:07:36;;;;;;;6.15;2.67;;;;;;;27.70;44.69;99967.13;4763926;30;20179;-64
2021/06/21 06:10:03;;;;;;;6.55;2.25;;;;;;;27.81;44.09;99961.53;4766497;30;20134;-66
2021/06/21 06:12:29;;;;;;;6.40;1.92;;;;;;;27.81;42.37;99958.88;4768934;30;20523;-63
2021/06/21 06:17:36;;;;;;;2.53;1.70;;;;;;;27.87;42.70;99962.75;5438635;24;20059;-65
2021/06/21 06:20:04;;;;;;;2.55;1.60;;;;;;;27.96;41.63;99967.16;4808534;29;20050;-63
2021/06/21 06:22:30;;;;;;;5.63;1.60;;;;;;;28.07;40.81;99961.56;4804476;29;20193;-63
2021/06/21 06:24:55;;;;;;;3.15;1.88;;;;;;;28.15;40.40;99954.47;4801246;29;20096;-68
2021/06/21 06:27:21;;;;;;;3.45;1.60;;;;;;;28.34;40.43;99953.38;4802097;29;20054;-69
2021/06/21 06:29:46;;;;;;;5.47;1.83;;;;;;;28.51;40.14;99955.16;4804372;29;20445;-69
2021/06/21 06:32:12;;;;;;;4.40;2.13;;;;;;;28.67;39.98;99951.69;4812325;29;20053;-68
2021/06/21 06:34:38;;;;;;;3.13;1.60;;;;;;;28.83;39.49;99957.13;4811003;29;20054;-60
2021/06/21 06:39:59;;;;;;;4.13;1.83;;;;;;;29.06;39.21;99952.81;4912107;24;20066;-65
2021/06/21 06:42:25;;;;;;;3.85;1.67;;;;;;;29.31;39.08;99950.22;4804265;29;20053;-62
2021/06/21 06:44:51;;;;;;;5.78;2.13;;;;;;;29.65;38.06;99942.00;4809126;29;20042;-63
2021/06/21 06:47:17;;;;;;;4.55;1.70;;;;;;;30.19;37.59;99948.50;4804043;29;20070;-61
2021/06/21 06:49:42;;;;;;;5.00;2.13;;;;;;;30.78;36.53;99959.69;4813469;29;20050;-70
2021/06/21 06:52:09;;;;;;;5.30;2.80;;;;;;;31.46;35.75;99960.63;4809149;29;20078;-70
2021/06/21 06:57:01;;;;;;;9.73;2.42;;;;;;;32.29;34.70;99951.66;4798825;29;20050;-68
2021/06/21 06:59:35;;;;;;;8.40;2.65;;;;;;;32.52;33.65;99952.38;4803484;29;20131;-68
2021/06/21 07:02:04;;;;;;;8.98;2.45;;;;;;;32.93;33.34;99955.38;4804099;29;20518;-68
2021/06/21 07:04:31;;;;;;;2.80;2.03;;;;;;;33.36;32.02;99947.38;4804062;29;20046;-69
2021/06/21 07:07:00;;;;;;;6.47;2.30;;;;;;;33.69;31.96;99948.53;4801625;29;20046;-69
2021/06/21 07:09:27;;;;;;;11.63;2.58;;;;;;;34.50;31.49;99943.44;4802616;29;20056;-68
2021/06/21 07:11:53;;;;;;;4.38;2.60;;;;;;;35.42;29.61;99950.03;4803614;29;20472;-73
2021/06/21 07:14:19;;;;;;;11.90;2.80;;;;;;;36.38;28.70;99953.06;4802424;29;20050;-72
2021/06/21 07:16:46;;;;;;;5.15;2.78;;;;;;;36.88;28.03;99954.16;4801727;29;20053;-68
2021/06/21 07:19:13;;;;;;;8.52;2.90;;;;;;;37.65;26.64;99959.31;4802531;29;20051;-70
2021/06/21 07:21:39;;;;;;;3.50;2.85;;;;;;;37.55;26.32;99952.75;4796885;29;20053;-68
2021/06/21 07:24:05;;;;;;;7.13;2.95;;;;;;;37.70;26.02;99948.63;4802480;29;20050;-69
2021/06/21 07:26:31;;;;;;;8.93;3.00;;;;;;;37.78;26.94;99952.13;4803103;29;20062;-70
2021/06/21 07:28:56;;;;;;;6.03;2.70;;;;;;;38.34;26.29;99946.56;4803265;29;20043;-69
2021/06/21 07:31:22;;;;;;;7.97;3.17;;;;;;;38.44;25.81;99958.56;4807697;29;20055;-69
2021/06/21 07:33:48;;;;;;;6.18;2.92;;;;;;;37.89;26.68;99943.25;4803497;29;20047;-70
2021/06/21 07:36:14;;;;;;;7.80;2.90;;;;;;;37.96;27.34;99950.28;4802797;29;20047;-69
2021/06/21 07:38:40;;;;;;;16.17;4.43;;;;;;;37.92;27.12;99948.22;4803126;29;20399;-70
2021/06/21 07:41:06;;;;;;;12.48;4.68;;;;;;;38.15;27.10;99957.44;4805598;29;20053;-67
2021/06/21 07:43:32;;;;;;;8.98;3.45;;;;;;;38.64;24.60;99952.06;4799321;29;20039;-70
2021/06/21 07:45:57;;;;;;;10.02;3.10;;;;;;;38.81;26.44;99951.22;4802535;29;20043;-71
2021/06/21 07:48:23;;;;;;;8.45;4.43;;;;;;;38.37;26.82;99951.53;4801969;29;20780;-68
2021/06/21 07:50:52;;;;;;;10.23;3.55;;;;;;;37.93;27.19;99948.03;4808975;29;20041;-69
2021/06/21 07:53:17;;;;;;;5.70;3.00;;;;;;;36.81;27.64;99946.06;4804944;29;20072;-67
2021/06/21 07:55:43;;;;;;;8.25;3.40;;;;;;;37.08;27.75;99952.19;4806517;29;20056;-69
2021/06/21 07:58:09;;;;;;;7.90;3.15;;;;;;;38.26;26.01;99942.28;4801453;29;20042;-66
2021/06/21 08:00:38;;;;;;;9.02;3.50;;;;;;;39.37;25.00;99947.31;4802177;29;20058;-66
2021/06/21 08:03:06;;;;;;;13.02;4.93;;;;;;;39.96;24.98;99953.69;4802412;29;20051;-68
2021/06/21 08:05:32;;;;;;;6.93;3.70;;;;;;;40.56;24.25;99951.50;4803121;29;20134;-69
2021/06/21 08:07:57;;;;;;;7.13;3.50;;;;;;;40.75;23.22;99954.91;4803533;29;20213;-68
2021/06/21 08:10:23;;;;;;;7.22;3.33;;;;;;;40.05;23.56;99949.53;4808685;29;20098;-72
2021/06/21 08:12:49;;;;;;;10.75;3.45;;;;;;;39.50;24.22;99941.69;4813798;29;20047;-68
2021/06/21 08:15:15;;;;;;;10.07;3.80;;;;;;;39.55;24.24;99944.53;4803410;29;20133;-70
2021/06/21 08:17:41;;;;;;;10.68;4.25;;;;;;;40.42;23.61;99953.66;4803447;29;20057;-69
2021/06/21 08:20:08;;;;;;;9.35;3.70;;;;;;;41.02;23.13;99951.34;5257330;24;20086;-69
2021/06/21 08:22:35;;;;;;;8.30;3.33;;;;;;;40.58;22.85;99946.63;4811862;29;20062;-69
2021/06/21 08:25:01;;;;;;;5.28;3.30;;;;;;;40.94;22.32;99954.47;4811604;29;20502;-68
2021/06/21 08:27:28;;;;;;;6.68;3.60;;;;;;;40.50;22.52;99947.00;4806661;29;20095;-69
2021/06/21 08:29:54;;;;;;;7.90;3.50;;;;;;;39.98;22.73;99952.41;4803486;29;20063;-68
2021/06/21 08:32:20;;;;;;;5.72;3.58;;;;;;;40.15;22.35;99947.03;4803098;29;20058;-69
2021/06/21 08:34:46;;;;;;;12.02;3.65;;;;;;;40.47;22.09;99944.75;4802805;29;20152;-68
2021/06/21 08:37:11;;;;;;;8.23;3.28;;;;;;;40.95;21.89;99934.28;4802656;29;20047;-71
2021/06/21 08:39:38;;;;;;;4.40;3.25;;;;;;;40.92;21.84;99944.88;4803391;29;20043;-68
2021/06/21 08:42:05;;;;;;;5.50;3.60;;;;;;;41.10;21.31;99933.78;4802663;29;20485;-67
2021/06/21 08:44:35;;;;;;;8.63;3.60;;;;;;;41.87;21.23;99925.81;4802050;29;20343;-68
2021/06/21 08:47:04;;;;;;;4.65;4.03;;;;;;;41.98;20.39;99932.25;4801576;29;20061;-69
2021/06/21 08:49:33;;;;;;;8.38;4.25;;;;;;;42.12;20.29;99933.53;4802017;29;20194;-73
2021/06/21 08:52:01;;;;;;;10.73;4.25;;;;;;;41.62;20.59;99952.69;4811904;29;20065;-66
2021/06/21 08:54:28;;;;;;;9.07;3.70;;;;;;;41.36;20.50;99948.69;4812135;29;20137;-67
2021/06/21 08:56:57;;;;;;;7.68;3.75;;;;;;;41.65;20.77;99942.13;4786660;29;20139;-70
2021/06/21 08:59:23;;;;;;;4.75;4.18;;;;;;;42.51;20.10;99939.81;4784959;29;20104;-69
2021/06/21 09:01:49;;;;;;;6.72;4.30;;;;;;;42.96;19.89;99934.88;4784838;29;20043;-70
2021/06/21 09:04:16;;;;;;;4.38;3.90;;;;;;;43.75;19.45;99942.47;4784975;29;20048;-68
2021/06/21 09:06:43;;;;;;;6.65;4.22;;;;;;;44.41;18.84;99948.34;4784817;29;20050;-61
2021/06/21 09:09:09;;;;;;;9.57;4.50;;;;;;;44.84;18.64;99949.91;4802368;29;20529;-69
2021/06/21 09:11:49;;;;;;;7.03;4.93;;;;;;;45.51;18.32;99941.50;4802069;29;20110;-67
2021/06/21 09:14:29;;;;;;;7.35;4.53;;;;;;;45.60;17.51;99928.84;4805021;29;20043;-68
2021/06/21 09:16:59;;;;;;;9.70;4.57;;;;;;;45.97;17.42;99939.53;4821203;29;20133;-65
2021/06/21 09:19:26;;;;;;;8.93;4.60;;;;;;;45.50;17.56;99935.19;4788330;29;20431;-65
2021/06/21 09:21:52;;;;;;;6.78;4.55;;;;;;;44.91;17.72;99925.78;4804935;29;20103;-67
2021/06/21 09:24:29;;;;;;;4.97;4.53;;;;;;;44.69;17.96;99934.22;4810575;29;20583;-71
2021/06/21 09:26:59;;;;;;;13.18;4.47;;;;;;;44.47;17.89;99933.56;4813841;29;20058;-69
2021/06/21 09:29:52;;;;;;;5.22;4.47;;;;;;;45.32;17.65;99926.66;4813792;29;20464;-69
2021/06/21 09:32:19;;;;;;;6.50;4.60;;;;;;;45.61;17.57;99921.44;4813364;29;20542;-69
2021/06/21 09:34:45;;;;;;;5.55;4.25;;;;;;;45.48;17.35;99931.91;4810908;29;20536;-69
2021/06/21 09:37:13;;;;;;;6.03;4.30;;;;;;;45.35;17.26;99928.84;4813000;29;20525;-67
2021/06/21 09:39:47;;;;;;;6.15;4.15;;;;;;;45.06;17.71;99925.81;4811873;29;20507;-69
2021/06/21 09:42:24;;;;;;;6.95;4.30;;;;;;;45.26;17.45;99936.00;4812158;29;20046;-69
2021/06/21 09:44:54;;;;;;;7.63;4.40;;;;;;;45.13;17.47;99929.09;4810560;29;20055;-70
2021/06/21 09:47:25;;;;;;;4.97;4.45;;;;;;;44.99;17.93;99928.78;4814554;29;20522;-72
2021/06/21 09:50:13;;;;;;;6.00;4.40;;;;;;;44.57;17.80;99923.47;4811296;29;20088;-69
2021/06/21 09:52:40;;;;;;;6.63;4.25;;;;;;;44.38;17.76;99925.06;4812845;29;20089;-69
2021/06/21 09:55:16;;;;;;;10.38;6.13;;;;;;;44.98;17.68;99913.41;4812687;29;20050;-68
2021/06/21 09:57:43;;;;;;;10.52;5.60;;;;;;;45.36;17.31;99914.00;4811133;29;20145;-67
2021/06/21 10:00:10;;;;;;;6.03;4.30;;;;;;;45.26;17.48;99916.75;4807535;29;20114;-69
2021/06/21 10:02:37;;;;;;;5.35;4.22;;;;;;;44.94;17.73;99915.06;4805117;29;20065;-69
2021/06/21 10:05:04;;;;;;;5.57;4.30;;;;;;;44.55;17.51;99916.56;4805297;29;20051;-66
2021/06/21 10:07:31;;;;;;;4.70;4.25;;;;;;;44.12;17.52;99904.06;4813588;29;20053;-65
2021/06/21 10:09:58;;;;;;;;;;;;;;;44.84;17.25;99915.06;4805545;29;20051;-67
2021/06/21 10:12:24;;;;;;;4.88;4.30;;;;;;;44.81;17.23;99910.09;4801705;29;19925;-67
2021/06/21 10:14:50;;;;;;;7.20;4.60;;;;;;;44.58;17.69;99914.13;4807288;29;20054;-67
2021/06/21 10:17:16;;;;;;;8.33;4.23;;;;;;;45.22;17.72;99918.41;4805162;29;20115;-68
2021/06/21 10:22:36;;;;;;;7.63;4.97;;;;;;;44.56;18.16;99902.59;4771798;30;20054;-68
2021/06/21 10:25:04;;;;;;;12.82;4.60;;;;;;;44.75;18.34;99908.47;4768311;30;20052;-65
2021/06/21 10:27:32;;;;;;;6.30;4.90;;;;;;;44.85;18.16;99908.47;4769443;30;20047;-67
2021/06/21 10:29:58;;;;;;;7.82;4.72;;;;;;;44.41;18.57;99904.47;4774833;30;20084;-67
2021/06/21 10:32:26;;;;;;;7.88;4.88;;;;;;;44.63;18.16;99897.69;4767931;29;20048;-66
2021/06/21 10:34:52;;;;;;;8.43;4.35;;;;;;;44.95;17.92;99902.16;4768175;30;20512;-68
2021/06/21 10:37:21;;;;;;;9.32;4.72;;;;;;;44.50;18.71;99902.84;4764002;30;20050;-67
2021/06/21 10:39:55;;;;;;;6.35;5.00;;;;;;;43.81;19.20;99897.56;4762700;30;20109;-67
2021/06/21 10:42:24;;;;;;;5.82;4.55;;;;;;;43.58;19.35;99890.56;4764206;30;20044;-66
2021/06/21 10:44:55;;;;;;;7.43;4.70;;;;;;;43.13;19.60;99880.03;4759584;30;20126;-67
2021/06/21 10:47:42;;;;;;;9.13;4.32;;;;;;;43.17;19.93;99883.09;4777216;30;20086;-67
2021/06/21 10:50:08;;;;;;;8.00;4.80;;;;;;;43.58;19.74;99876.03;4783269;29;20051;-68
2021/06/21 10:52:35;;;;;;;7.50;5.20;;;;;;;44.15;19.26;99885.16;4766246;29;20079;-63
2021/06/21 10:55:26;;;;;;;8.10;5.03;;;;;;;44.11;18.84;99881.31;4781711;30;20043;-64
2021/06/21 10:57:56;;;;;;;5.10;4.63;;;;;;;44.04;18.92;99882.63;4783547;30;20112;-62
2021/06/21 11:00:36;;;;;;;10.32;4.47;;;;;;;43.76;19.09;99881.09;4777535;29;20048;-64
2021/06/21 11:03:04;;;;;;;8.73;4.75;;;;;;;43.10;19.54;99869.63;4794283;29;20083;-62
2021/06/21 11:05:39;;;;;;;4.60;4.28;;;;;;;42.85;19.64;99875.66;4781899;30;20495;-64
2021/06/21 11:08:17;;;;;;;6.15;4.50;;;;;;;42.92;19.61;99873.53;4761591;30;20044;-63
2021/06/21 11:13:41;;;;;;;11.77;4.68;;;;;;;43.03;19.43;99850.63;4750778;27;20062;-63
2021/06/21 11:16:13;;;;;;;5.18;4.75;;;;;;;43.54;18.92;99862.06;4769276;29;20051;-62
2021/06/21 11:18:38;;;;;;;5.43;4.72;;;;;;;44.18;18.72;99864.59;4775972;30;20047;-64
2021/06/21 11:21:18;;;;;;;9.93;4.93;;;;;;;44.35;18.58;99854.25;4777095;29;20054;-63
2021/06/21 11:23:45;;;;;;;11.02;5.22;;;;;;;43.92;19.02;99867.22;4759544;30;20206;-64
2021/06/21 11:26:11;;;;;;;7.00;5.15;;;;;;;43.84;19.01;99862.22;4767670;30;20067;-62
2021/06/21 11:28:43;;;;;;;7.35;5.25;;;;;;;44.59;18.31;99860.09;4768214;30;20048;-64
2021/06/21 11:31:20;;;;;;;9.07;5.30;;;;;;;44.70;17.94;99856.31;4766721;30;20070;-63
2021/06/21 11:33:54;;;;;;;7.82;4.75;;;;;;;45.03;18.01;99871.41;4768060;30;20044;-63
2021/06/21 11:36:39;;;;;;;7.32;4.55;;;;;;;44.41;18.45;99868.81;4766308;29;20127;-61
2021/06/21 11:39:21;;;;;;;10.43;4.82;;;;;;;43.35;19.04;99863.50;4767876;30;20051;-63
2021/06/21 11:42:00;;;;;;;5.28;4.78;;;;;;;42.92;19.36;99870.00;4774334;29;20051;-64
2021/06/21 11:44:38;;;;;;;5.25;4.75;;;;;;;42.27;19.84;99862.66;4765903;30;20082;-62
2021/06/21 11:47:23;;;;;;;7.32;5.50;;;;;;;42.16;19.91;99861.72;4766943;30;20062;-61
2021/06/21 11:49:52;;;;;;;7.57;4.90;;;;;;;42.85;19.69;99858.44;4767007;30;20082;-58
2021/06/21 11:52:20;;;;;;;6.15;4.65;;;;;;;43.31;19.57;99860.47;4770590;30;20071;-63
2021/06/21 11:54:47;;;;;;;7.57;4.53;;;;;;;43.15;19.58;99857.88;4775603;29;20520;-63
2021/06/21 11:57:14;;;;;;;5.67;4.07;;;;;;;42.54;19.51;99852.63;4776819;30;20047;-65
2021/06/21 11:59:41;;;;;;;5.82;4.00;;;;;;;42.31;19.92;99852.91;4767586;30;20110;-63
2021/06/21 12:02:11;;;;;;;6.30;3.85;;;;;;;42.37;19.24;99846.41;4775913;30;20138;-64